Impacts TAF Board INFO
FOR SITUATIONAL AWARENESS. NOT TO BE USED FOR FLIGHT PLANNING PURPOSES.
IDs:

KLAX - Los Angeles Intl, CA, US

Issued at 2357 UTC 16 Dec 2017
Updated at 0226 UTC 17 Dec 2017
Potential Impact None Slight Moderate High
Time<<17/15Z 17/16Z 17/17Z 17/18Z 17/19Z 17/20Z 17/21Z 17/22Z 17/23Z 18/00Z 18/01Z 18/02Z 18/03Z>>
Type PRVL PRVL PRVL PRVL PRVL PRVL PRVL PRVL PRVL PRVL PRVL PRVL PRVL
VIS >6 >6 >6 >6 >6 >6 6 6 6 6 6 6 6
CIG -- -- -- -- -- -- -- -- -- -- -- -- --
Cover SKC SKC SKC SKC SKC SKC SKC SKC SKC SKC SKC SKC SKC
FltCat VFR VFR VFR VFR VFR VFR VFR VFR VFR VFR VFR VFR VFR
WX -- -- -- -- -- -- FU FU FU FU FU FU FU
WDir 20 60 60 60 60 60 270 270 270 270 270 270 270
WSpd 8 6 6 6 6 6 8 8 8 8 8 8 8
WGst -- -- -- -- -- -- -- -- -- -- -- -- --

Raw TAF
KLAX 162357Z 1700/1806 23008KT 6SM FU SKC
  FM170400 VRB03KT 6SM FU SKC
  FM170900 02008KT P6SM SKC WS010/03035KT
  FM171600 06006KT P6SM SKC WS010/04035KT
  FM172100 27008KT 6SM FU SKC


METAR Board
Radar Display
Forecast Discussion

FOR SITUATIONAL AWARENESS. NOT TO BE USED FOR FLIGHT PLANNING PURPOSES.